Terminal Aerodrome Forecast
Issued by NWS

Home | Current Version | Previous Version | Text Only | Print | Product List | Glossary On
Versions: 1 2 3 4 5 6 7 8 9 10 11 12 13 14 15 16 17 18
000
FTUS45 KSLC 281120
TAFPVU
TAF
KPVU 281120Z 2812/0112 VRB04KT P6SM BKN015 BKN080
     FM281400 VRB04KT P6SM SCT060 BKN120
     FM281700 VRB04KT P6SM VCSH SCT020 BKN040
     FM282000 30007KT 2SM -SN BR SCT010 BKN025
     FM010100 VRB04KT P6SM VCSH SCT030 BKN060
     FM010600 VRB04KT P6SM SCT060 BKN120=

USA.gov is the U.S. government's official web portal to all federal, state and local government web resources and services.